< < Back
Terminal Aerodrome Forecast


Current Version              Previous Versions:   1  2  3  4  5  6  7  8  9  

Terminal Aerodrome Forecast

820
FTUS42 KILM 040520
TAFILM
TAF
KILM 040520Z 0406/0506 00000KT 5SM BR OVC250
      TEMPO 0408/0412 2SM BR SCT250
     FM041300 32005KT P6SM SCT040 SCT250
     FM041700 11006KT P6SM VCSH SCT045 BKN250
     FM042300 06005KT P6SM VCSH BKN030=

Latest METAR

040
SAUS70 KWBC 041200 RRE
MTRILM
METAR KILM 041153Z 00000KT 10SM CLR 23/22 A2995 RMK AO2 SLP141 T02330217
10233 20211 53011


USA.gov is the U.S. government's official web portal to all federal, state and local government web resources and services.